createdAt,value
2022-11-04T00:02:06.757Z,0.10
2022-11-04T00:12:27.530Z,0.10
2022-11-04T00:22:48.583Z,0.10
2022-11-04T00:33:09.618Z,0.27
2022-11-04T00:43:12.084Z,0.10
2022-11-04T00:53:14.417Z,0.10
2022-11-04T01:03:16.783Z,0.20
2022-11-04T01:13:19.548Z,0.00
2022-11-04T01:23:22.225Z,0.17
2022-11-04T01:33:25.432Z,0.30
2022-11-04T01:44:18.857Z,0.33
2022-11-04T01:54:21.837Z,0.30
2022-11-04T02:04:26.988Z,0.27
2022-11-04T02:14:29.904Z,0.20
2022-11-04T02:24:57.149Z,0.20
2022-11-04T02:35:05.242Z,0.30
2022-11-04T02:45:17.483Z,0.20
2022-11-04T02:55:25.641Z,0.20
2022-11-04T03:05:36.784Z,0.30
2022-11-04T03:15:43.169Z,0.30
2022-11-04T03:25:48.536Z,0.30
2022-11-04T03:35:50.974Z,0.37
2022-11-04T03:45:54.979Z,0.20
2022-11-04T03:56:00.308Z,0.30
2022-11-04T04:06:13.018Z,0.20
2022-11-04T04:16:43.973Z,0.17
2022-11-04T04:27:07.516Z,0.20
2022-11-04T04:37:19.656Z,0.10
2022-11-04T04:47:25.120Z,0.20
2022-11-04T04:57:27.646Z,0.20
2022-11-04T05:07:30.509Z,0.13
2022-11-04T05:17:33.040Z,0.10
2022-11-04T05:27:35.495Z,0.10
2022-11-04T05:37:38.193Z,0.20
2022-11-04T05:47:40.935Z,0.20
2022-11-04T05:57:43.525Z,0.10
2022-11-04T06:07:46.246Z,0.20
2022-11-04T06:17:49.343Z,0.20
2022-11-04T06:27:52.212Z,0.20
2022-11-04T06:37:55.880Z,0.30
2022-11-04T06:47:58.971Z,0.20
2022-11-04T06:58:02.417Z,0.20
2022-11-04T07:08:08.647Z,0.23
2022-11-04T07:18:12.243Z,0.20
2022-11-04T07:28:16.314Z,0.20
2022-11-04T07:38:21.215Z,0.20
2022-11-04T07:48:24.835Z,0.20
2022-11-04T07:58:30.951Z,0.50
2022-11-04T08:08:36.005Z,0.50
2022-11-04T08:18:41.691Z,0.70
2022-11-04T08:28:47.346Z,0.80
2022-11-04T08:49:57.621Z,1.30
2022-11-04T09:00:03.895Z,1.27
2022-11-04T09:10:08.074Z,1.40
2022-11-04T09:20:13.589Z,1.60
2022-11-04T09:30:22.464Z,1.55
2022-11-04T09:40:38.429Z,2.00
2022-11-04T09:50:47.085Z,2.00
2022-11-04T10:01:08.402Z,1.65
2022-11-04T10:11:23.667Z,1.70
2022-11-04T10:21:51.458Z,1.87
2022-11-04T10:32:00.609Z,2.05
2022-11-04T10:42:12.619Z,1.55
2022-11-04T10:52:22.983Z,2.95
2022-11-04T11:02:38.195Z,2.58
2022-11-04T11:12:52.525Z,2.22
2022-11-04T11:23:01.926Z,2.00
2022-11-04T11:33:19.037Z,1.70
2022-11-04T11:43:34.036Z,0.95
2022-11-04T11:53:40.382Z,1.00
2022-11-04T12:14:56.393Z,1.10
2022-11-04T12:25:21.981Z,0.80
2022-11-04T12:35:50.224Z,0.80
2022-11-04T12:46:09.710Z,1.05
2022-11-04T12:56:24.626Z,0.95
2022-11-04T13:06:32.130Z,0.95
2022-11-04T13:16:40.887Z,0.65
2022-11-04T13:26:44.987Z,0.30
2022-11-04T13:47:30.659Z,0.20
2022-11-04T13:57:58.449Z,0.57
2022-11-04T14:08:04.097Z,0.20
2022-11-04T14:18:28.376Z,0.20
2022-11-04T14:28:33.005Z,0.20
2022-11-04T14:48:52.329Z,0.50
2022-11-04T14:59:06.041Z,0.32
2022-11-04T15:09:24.189Z,0.50
2022-11-04T15:19:35.327Z,0.30
2022-11-04T15:29:38.138Z,0.50
2022-11-04T15:39:44.945Z,0.50
2022-11-04T15:49:49.943Z,0.93
2022-11-04T16:00:22.635Z,0.80
2022-11-04T16:10:33.155Z,0.60
2022-11-04T16:20:36.390Z,0.60
2022-11-04T16:30:39.611Z,0.70
2022-11-04T16:40:46.934Z,0.40
2022-11-04T16:50:49.890Z,0.40
2022-11-04T17:00:55.347Z,0.50
2022-11-04T17:10:58.352Z,0.30
2022-11-04T17:21:07.174Z,0.30
2022-11-04T17:31:16.550Z,0.20
2022-11-04T17:41:37.582Z,0.20
2022-11-04T17:51:43.272Z,0.30
2022-11-04T18:01:47.043Z,0.20
2022-11-04T18:12:08.458Z,0.37
2022-11-04T18:22:11.048Z,0.27
2022-11-04T18:32:13.670Z,0.40
2022-11-04T18:42:16.246Z,0.40
2022-11-04T18:52:19.129Z,0.60
2022-11-04T19:02:24.165Z,0.53
2022-11-04T19:12:45.371Z,0.73
2022-11-04T19:22:48.212Z,0.97
2022-11-04T19:32:51.200Z,0.70
2022-11-04T19:43:12.257Z,0.60
2022-11-04T19:53:16.607Z,0.50
2022-11-04T20:03:19.255Z,0.70
2022-11-04T20:13:40.171Z,0.70
2022-11-04T20:23:44.307Z,0.60
2022-11-04T20:33:48.699Z,0.47
2022-11-04T20:43:53.198Z,0.30
2022-11-04T20:53:57.449Z,0.30
2022-11-04T21:04:05.884Z,0.30
2022-11-04T21:14:11.849Z,0.30
2022-11-04T21:24:17.089Z,0.10
2022-11-04T21:34:19.827Z,0.20
2022-11-04T21:44:22.178Z,0.10
2022-11-04T21:54:36.375Z,0.30
2022-11-04T22:04:48.554Z,0.30
2022-11-04T22:14:52.110Z,0.33
2022-11-04T22:25:03.651Z,0.30
2022-11-04T22:35:06.790Z,0.20
2022-11-04T22:45:15.460Z,0.30
2022-11-04T22:55:19.220Z,0.47
2022-11-04T23:05:21.793Z,0.37
2022-11-04T23:15:43.092Z,0.60
2022-11-04T23:25:45.647Z,0.43
2022-11-04T23:36:08.129Z,0.50
2022-11-04T23:46:30.852Z,0.53
2022-11-04T23:56:52.019Z,0.40
